createdAt,value
2018-05-10T00:00:05.210Z,9.63
2018-05-10T00:02:32.686Z,9.17
2018-05-10T00:05:00.162Z,9.23
2018-05-10T00:07:27.603Z,9.67
2018-05-10T00:09:55.063Z,9.50
2018-05-10T00:12:22.506Z,8.13
2018-05-10T00:14:49.971Z,9.43
2018-05-10T00:17:17.423Z,9.40
2018-05-10T00:19:44.883Z,9.30
2018-05-10T00:22:12.344Z,9.80
2018-05-10T00:24:39.802Z,9.90
2018-05-10T00:27:07.266Z,11.10
2018-05-10T00:29:35.914Z,9.27
2018-05-10T00:32:03.398Z,9.93
2018-05-10T00:34:30.859Z,8.77
2018-05-10T00:36:58.314Z,9.00
2018-05-10T00:39:25.774Z,9.50
2018-05-10T00:41:53.231Z,9.97
2018-05-10T00:44:20.797Z,10.77
2018-05-10T00:46:48.243Z,9.57
2018-05-10T00:49:15.699Z,9.40
2018-05-10T00:51:43.151Z,9.40
2018-05-10T00:54:22.510Z,9.77
2018-05-10T00:56:49.967Z,9.77
2018-05-10T00:59:17.530Z,10.60
2018-05-10T01:01:45.366Z,10.80
2018-05-10T01:04:12.824Z,10.43
2018-05-10T01:06:40.314Z,9.30
2018-05-10T01:09:07.771Z,9.23
2018-05-10T01:11:35.322Z,9.67
2018-05-10T01:14:02.784Z,8.70
2018-05-10T01:16:30.245Z,9.20
2018-05-10T01:18:57.711Z,10.07
2018-05-10T01:21:25.163Z,11.00
2018-05-10T01:23:52.626Z,10.83
2018-05-10T01:26:20.087Z,11.13
2018-05-10T01:28:47.641Z,9.97
2018-05-10T01:31:15.198Z,10.30
2018-05-10T01:33:42.762Z,10.20
2018-05-10T01:36:14.283Z,10.40
2018-05-10T01:38:41.784Z,10.43
2018-05-10T01:41:09.245Z,11.00
2018-05-10T01:43:36.719Z,11.30
2018-05-10T01:46:04.171Z,12.03
2018-05-10T01:48:31.708Z,9.80
2018-05-10T01:50:59.174Z,11.23
2018-05-10T01:53:26.729Z,10.20
2018-05-10T01:55:54.191Z,12.23
2018-05-10T01:58:21.650Z,10.10
2018-05-10T02:00:49.126Z,11.23
2018-05-10T02:03:16.665Z,11.33
2018-05-10T02:05:44.132Z,11.70
2018-05-10T02:08:11.591Z,12.63
2018-05-10T02:10:39.819Z,13.13
2018-05-10T02:13:07.275Z,11.87
2018-05-10T02:15:34.766Z,11.47
2018-05-10T02:18:02.229Z,11.80
2018-05-10T02:20:29.691Z,11.00
2018-05-10T02:22:57.146Z,13.20
2018-05-10T02:25:24.616Z,12.30
2018-05-10T02:27:52.440Z,12.20
2018-05-10T02:30:19.928Z,13.20
2018-05-10T02:32:47.392Z,13.67
2018-05-10T02:35:14.859Z,14.00
2018-05-10T02:37:43.817Z,13.10
2018-05-10T02:40:11.299Z,12.40
2018-05-10T02:42:38.858Z,14.30
2018-05-10T02:45:06.473Z,14.77
2018-05-10T02:47:33.807Z,13.87
2018-05-10T02:50:01.280Z,13.97
2018-05-10T02:52:29.587Z,13.47
2018-05-10T02:54:57.048Z,14.30
2018-05-10T02:57:24.503Z,13.40
2018-05-10T02:59:51.971Z,14.17
2018-05-10T03:02:19.469Z,13.70
2018-05-10T03:04:48.436Z,12.77
2018-05-10T03:07:15.899Z,13.20
2018-05-10T03:09:43.473Z,12.53
2018-05-10T03:12:10.932Z,14.40
2018-05-10T03:14:39.171Z,12.30
2018-05-10T03:17:06.669Z,13.27
2018-05-10T03:19:34.127Z,13.20
2018-05-10T03:22:01.588Z,13.10
2018-05-10T03:24:29.138Z,12.43
2018-05-10T03:26:56.604Z,13.67
2018-05-10T03:29:24.068Z,13.13
2018-05-10T03:31:51.617Z,13.33
2018-05-10T03:34:19.170Z,12.70
2018-05-10T03:36:46.627Z,13.63
2018-05-10T03:39:19.872Z,12.90
2018-05-10T03:41:48.100Z,12.37
2018-05-10T03:44:15.559Z,13.03
2018-05-10T03:46:43.114Z,12.70
2018-05-10T03:49:10.584Z,12.80
2018-05-10T03:51:39.580Z,12.70
2018-05-10T03:54:07.852Z,13.57
2018-05-10T03:56:35.409Z,12.03
2018-05-10T03:59:02.875Z,13.50
2018-05-10T04:01:30.424Z,13.83
2018-05-10T04:04:11.404Z,14.00
2018-05-10T04:06:50.852Z,13.67
2018-05-10T04:09:31.619Z,14.60
2018-05-10T04:11:59.914Z,14.67
2018-05-10T04:14:27.446Z,15.43
2018-05-10T04:16:55.019Z,14.23
2018-05-10T04:19:22.567Z,15.87
2018-05-10T04:21:50.034Z,13.53
2018-05-10T04:24:17.608Z,14.20
2018-05-10T04:26:45.159Z,15.30
2018-05-10T04:29:12.732Z,13.30
2018-05-10T04:31:40.962Z,14.77
2018-05-10T04:34:08.459Z,13.97
2018-05-10T04:36:36.184Z,14.40
2018-05-10T04:39:03.648Z,14.43
2018-05-10T04:41:31.124Z,14.50
2018-05-10T04:43:58.585Z,15.60
2018-05-10T04:46:26.050Z,15.30
2018-05-10T04:48:53.499Z,16.40
2018-05-10T04:51:21.057Z,15.50
2018-05-10T04:53:48.509Z,17.07
2018-05-10T04:56:15.979Z,17.93
2018-05-10T04:58:43.436Z,17.80
2018-05-10T05:01:10.928Z,16.87
2018-05-10T05:03:39.161Z,17.97
2018-05-10T05:06:06.627Z,16.33
2018-05-10T05:08:34.088Z,16.40
2018-05-10T05:11:01.553Z,16.27
2018-05-10T05:13:29.048Z,17.30
2018-05-10T05:15:57.276Z,18.83
2018-05-10T05:18:24.736Z,19.13
2018-05-10T05:20:52.203Z,17.97
2018-05-10T05:23:19.769Z,17.03
2018-05-10T05:25:47.244Z,17.80
2018-05-10T05:28:14.792Z,16.37
2018-05-10T05:30:42.264Z,16.40
2018-05-10T05:33:09.729Z,15.70
2018-05-10T05:35:38.001Z,16.50
2018-05-10T05:38:05.450Z,17.20
2018-05-10T05:40:33.003Z,18.07
2018-05-10T05:43:01.148Z,17.07
2018-05-10T05:45:28.689Z,15.63
2018-05-10T05:47:56.141Z,17.47
2018-05-10T05:50:23.644Z,15.97
2018-05-10T05:52:51.102Z,14.67
2018-05-10T05:55:18.559Z,15.30
2018-05-10T05:57:46.025Z,14.30
2018-05-10T06:00:13.479Z,15.07
2018-05-10T06:02:40.953Z,15.77
2018-05-10T06:05:08.423Z,15.30
2018-05-10T06:07:35.882Z,14.13
2018-05-10T06:10:04.112Z,14.87
2018-05-10T06:12:31.594Z,14.53
2018-05-10T06:14:59.056Z,13.43
2018-05-10T06:17:26.530Z,13.07
2018-05-10T06:19:53.990Z,12.60
2018-05-10T06:22:21.798Z,12.90
2018-05-10T06:24:49.253Z,13.37
2018-05-10T06:27:16.702Z,14.07
2018-05-10T06:29:44.181Z,12.63
2018-05-10T06:32:11.674Z,13.40
2018-05-10T06:34:39.132Z,13.20
2018-05-10T06:37:06.601Z,13.80
2018-05-10T06:39:34.071Z,11.53
2018-05-10T06:42:02.330Z,13.47
2018-05-10T06:44:29.793Z,10.90
2018-05-10T06:46:57.340Z,10.93
2018-05-10T06:49:24.726Z,11.37
2018-05-10T06:51:52.972Z,11.97
2018-05-10T06:54:20.427Z,10.40
2018-05-10T06:56:47.905Z,10.60
2018-05-10T06:59:15.367Z,10.33
2018-05-10T07:01:42.872Z,10.80
2018-05-10T07:04:10.383Z,10.60
2018-05-10T07:06:37.839Z,10.03
2018-05-10T07:09:05.305Z,9.57
2018-05-10T07:11:32.771Z,9.00
2018-05-10T07:14:00.990Z,8.90
2018-05-10T07:16:28.466Z,9.60
2018-05-10T07:18:55.926Z,9.80
2018-05-10T07:21:23.391Z,10.60
2018-05-10T07:23:50.863Z,11.97
2018-05-10T07:26:18.328Z,12.17
2018-05-10T07:28:45.795Z,11.27
2018-05-10T07:31:13.266Z,10.77
2018-05-10T07:33:41.492Z,11.47
2018-05-10T07:36:08.959Z,10.50
2018-05-10T07:38:36.422Z,10.47
2018-05-10T07:41:04.763Z,10.10
2018-05-10T07:43:32.241Z,9.97
2018-05-10T07:45:59.703Z,9.40
2018-05-10T07:48:27.176Z,7.40
2018-05-10T07:50:54.908Z,8.67
2018-05-10T07:53:22.382Z,9.33
2018-05-10T07:55:49.852Z,12.33
2018-05-10T07:58:17.325Z,9.93
2018-05-10T08:00:44.780Z,11.40
2018-05-10T08:03:12.644Z,10.97
2018-05-10T08:05:40.126Z,10.73
2018-05-10T08:08:07.589Z,11.33
2018-05-10T08:10:35.072Z,13.17
2018-05-10T08:13:02.543Z,9.73
2018-05-10T08:15:30.662Z,11.23
2018-05-10T08:17:58.119Z,9.50
2018-05-10T08:20:25.641Z,9.90
2018-05-10T08:22:53.106Z,9.47
2018-05-10T08:25:20.550Z,9.40
2018-05-10T08:27:48.024Z,9.83
2018-05-10T08:30:15.553Z,8.77
2018-05-10T08:32:42.948Z,9.40
2018-05-10T08:35:10.406Z,9.10
2018-05-10T08:37:37.866Z,7.67
2018-05-10T08:40:05.333Z,8.57
2018-05-10T08:42:32.783Z,7.60
2018-05-10T08:45:00.321Z,7.00
2018-05-10T08:47:27.703Z,7.50
2018-05-10T08:49:55.150Z,7.40
2018-05-10T08:52:22.615Z,6.93
2018-05-10T08:54:50.076Z,7.20
2018-05-10T08:57:17.541Z,6.83
2018-05-10T08:59:44.990Z,6.33
2018-05-10T09:02:12.456Z,6.70
2018-05-10T09:04:39.899Z,7.00
2018-05-10T09:07:07.356Z,7.27
2018-05-10T09:09:34.812Z,6.27
2018-05-10T09:12:02.273Z,6.67
2018-05-10T09:14:29.721Z,5.13
2018-05-10T09:16:57.181Z,6.13
2018-05-10T09:19:24.628Z,6.63
2018-05-10T09:21:52.096Z,5.20
2018-05-10T09:24:19.546Z,5.67
2018-05-10T09:26:47.011Z,5.50
2018-05-10T09:29:14.470Z,6.37
2018-05-10T09:31:41.936Z,5.53
2018-05-10T09:34:09.399Z,7.00
2018-05-10T09:36:36.868Z,5.77
2018-05-10T09:39:04.318Z,5.50
2018-05-10T09:41:31.779Z,5.23
2018-05-10T09:43:59.242Z,6.73
2018-05-10T09:46:26.693Z,5.90
2018-05-10T09:48:54.165Z,5.83
2018-05-10T09:51:21.618Z,10.93
2018-05-10T09:53:49.119Z,8.70
2018-05-10T09:56:17.352Z,9.70
2018-05-10T09:58:44.814Z,11.20
2018-05-10T10:01:12.308Z,9.17
2018-05-10T10:03:39.772Z,11.20
2018-05-10T10:06:08.078Z,10.60
2018-05-10T10:08:35.465Z,10.70
2018-05-10T10:11:02.923Z,9.37
2018-05-10T10:13:30.387Z,10.70
2018-05-10T10:15:57.843Z,11.27
2018-05-10T10:18:25.312Z,9.10
2018-05-10T10:20:52.767Z,10.47
2018-05-10T10:23:20.230Z,8.70
2018-05-10T10:25:47.807Z,7.57
2018-05-10T10:28:15.266Z,7.47
2018-05-10T10:30:42.727Z,9.27
2018-05-10T10:33:10.192Z,8.80
2018-05-10T10:35:38.425Z,10.17
2018-05-10T10:38:05.909Z,10.80
2018-05-10T10:40:33.347Z,9.97
2018-05-10T10:43:00.825Z,10.80
2018-05-10T10:45:28.281Z,10.50
2018-05-10T10:47:55.761Z,10.23
2018-05-10T10:50:23.231Z,10.23
2018-05-10T10:52:50.687Z,11.10
2018-05-10T10:55:18.131Z,10.23
2018-05-10T10:57:45.599Z,10.53
2018-05-10T11:00:13.822Z,10.17
2018-05-10T11:02:41.293Z,8.33
2018-05-10T11:05:08.752Z,8.73
2018-05-10T11:07:36.213Z,7.83
2018-05-10T11:10:03.663Z,8.30
2018-05-10T11:12:31.140Z,8.53
2018-05-10T11:14:58.612Z,7.57
2018-05-10T11:17:26.051Z,7.77
2018-05-10T11:19:54.321Z,7.80
2018-05-10T11:22:21.785Z,7.90
2018-05-10T11:24:49.244Z,8.13
2018-05-10T11:27:16.744Z,7.63
2018-05-10T11:29:44.146Z,7.63
2018-05-10T11:32:14.416Z,8.23
2018-05-10T11:34:41.917Z,8.60
2018-05-10T11:37:09.376Z,8.60
2018-05-10T11:39:36.835Z,7.40
2018-05-10T11:42:04.278Z,8.00
2018-05-10T11:44:31.744Z,8.53
2018-05-10T11:46:59.213Z,8.90
2018-05-10T11:49:26.672Z,7.97
2018-05-10T11:51:54.126Z,7.70
2018-05-10T11:54:22.279Z,6.30
2018-05-10T11:56:49.731Z,6.97
2018-05-10T11:59:17.959Z,6.90
2018-05-10T12:01:46.324Z,6.40
2018-05-10T12:04:13.795Z,6.13
2018-05-10T12:06:41.250Z,7.00
2018-05-10T12:09:08.747Z,6.93
2018-05-10T12:11:36.266Z,6.87
2018-05-10T12:14:03.734Z,7.40
2018-05-10T12:16:31.179Z,7.67
2018-05-10T12:18:58.640Z,7.60
2018-05-10T12:21:26.097Z,6.70
2018-05-10T12:23:53.553Z,8.70
2018-05-10T12:26:21.032Z,9.80
2018-05-10T12:28:49.514Z,8.90
2018-05-10T12:31:17.093Z,7.43
2018-05-10T12:33:44.633Z,9.00
2018-05-10T12:36:12.101Z,13.47
2018-05-10T12:38:40.468Z,21.10
2018-05-10T12:41:07.947Z,32.33
2018-05-10T12:43:35.419Z,32.30
2018-05-10T12:46:03.635Z,40.67
2018-05-10T12:48:31.097Z,49.47
2018-05-10T12:50:58.958Z,52.43
2018-05-10T12:53:26.421Z,47.03
2018-05-10T12:55:53.895Z,35.47
2018-05-10T12:58:21.353Z,35.00
2018-05-10T13:00:48.826Z,38.77
2018-05-10T13:03:16.267Z,39.17
2018-05-10T13:05:43.732Z,48.73
2018-05-10T13:08:11.197Z,49.47
2018-05-10T13:10:38.660Z,52.90
2018-05-10T13:13:06.140Z,53.40
2018-05-10T13:15:33.600Z,54.60
2018-05-10T13:18:01.410Z,53.70
2018-05-10T13:20:28.860Z,57.03
2018-05-10T13:22:56.337Z,61.27
2018-05-10T13:25:23.802Z,68.47
2018-05-10T13:27:51.376Z,67.00
2018-05-10T13:30:18.835Z,67.43
2018-05-10T13:32:46.391Z,66.27
2018-05-10T13:35:13.963Z,62.03
2018-05-10T13:37:41.532Z,64.17
2018-05-10T13:40:09.033Z,61.90
2018-05-10T13:42:37.276Z,60.53
2018-05-10T13:45:04.744Z,55.87
2018-05-10T13:47:33.045Z,58.90
2018-05-10T13:50:00.439Z,57.67
2018-05-10T13:52:27.892Z,58.87
2018-05-10T13:54:55.357Z,65.43
2018-05-10T13:57:22.807Z,73.97
2018-05-10T13:59:50.281Z,71.10
2018-05-10T14:02:17.754Z,67.90
2018-05-10T14:04:45.228Z,71.57
2018-05-10T14:07:12.680Z,72.43
2018-05-10T14:09:40.151Z,71.53
2018-05-10T14:12:18.371Z,71.77
2018-05-10T14:14:46.604Z,65.10
2018-05-10T14:17:14.075Z,62.43
2018-05-10T14:19:41.540Z,56.67
2018-05-10T14:22:09.476Z,51.30
2018-05-10T14:24:37.663Z,47.53
2018-05-10T14:27:05.137Z,44.43
2018-05-10T14:29:33.939Z,43.97
2018-05-10T14:32:02.171Z,44.70
2018-05-10T14:34:29.652Z,43.50
2018-05-10T14:36:57.106Z,40.67
2018-05-10T14:39:24.638Z,38.83
2018-05-10T14:41:52.038Z,44.40
2018-05-10T14:44:19.507Z,41.00
2018-05-10T14:46:47.051Z,43.87
2018-05-10T14:49:15.205Z,45.07
2018-05-10T14:51:42.678Z,44.17
2018-05-10T14:54:10.223Z,47.10
2018-05-10T14:56:37.616Z,48.13
2018-05-10T14:59:05.853Z,45.63
2018-05-10T15:01:33.311Z,46.10
2018-05-10T15:04:00.780Z,41.80
2018-05-10T15:06:28.252Z,42.00
2018-05-10T15:08:55.716Z,38.70
2018-05-10T15:11:23.176Z,40.13
2018-05-10T15:13:50.687Z,37.50
2018-05-10T15:16:18.146Z,26.73
2018-05-10T15:18:45.608Z,24.03
2018-05-10T15:21:13.881Z,24.27
2018-05-10T15:23:41.425Z,23.40
2018-05-10T15:26:08.795Z,23.47
2018-05-10T15:28:36.268Z,21.90
2018-05-10T15:31:03.725Z,21.60
2018-05-10T15:33:31.209Z,26.53
2018-05-10T15:35:58.663Z,26.07
2018-05-10T15:38:26.150Z,27.83
2018-05-10T15:40:53.625Z,27.77
2018-05-10T15:43:21.848Z,28.33
2018-05-10T15:45:49.312Z,27.83
2018-05-10T15:48:16.767Z,27.33
2018-05-10T15:50:44.235Z,24.97
2018-05-10T15:53:11.694Z,23.90
2018-05-10T15:55:39.168Z,21.93
2018-05-10T15:58:06.634Z,21.97
2018-05-10T16:00:34.859Z,22.67
2018-05-10T16:03:02.315Z,25.67
2018-05-10T16:05:29.792Z,25.20
2018-05-10T16:07:57.252Z,23.60
2018-05-10T16:10:24.711Z,22.43
2018-05-10T16:12:52.898Z,21.93
2018-05-10T16:15:20.355Z,22.10
2018-05-10T16:17:47.823Z,20.53
2018-05-10T16:20:15.306Z,19.67
2018-05-10T16:22:43.537Z,20.07
2018-05-10T16:25:11.028Z,18.70
2018-05-10T16:27:38.484Z,18.43
2018-05-10T16:30:06.324Z,18.80
2018-05-10T16:32:33.779Z,18.20
2018-05-10T16:35:01.269Z,19.37
2018-05-10T16:37:28.987Z,18.37
2018-05-10T16:39:56.444Z,18.47
2018-05-10T16:42:23.917Z,16.43
2018-05-10T16:44:52.143Z,15.20
2018-05-10T16:47:20.392Z,14.70
2018-05-10T16:52:41.579Z,14.90
2018-05-10T16:55:09.045Z,15.10
2018-05-10T16:57:36.504Z,15.30
2018-05-10T17:00:03.963Z,14.67
2018-05-10T17:02:31.419Z,15.63
2018-05-10T17:04:58.908Z,15.57
2018-05-10T17:07:26.368Z,14.83
2018-05-10T17:09:53.849Z,16.43
2018-05-10T17:12:22.102Z,17.67
2018-05-10T17:14:49.575Z,17.20
2018-05-10T17:17:17.121Z,20.40
2018-05-10T17:19:44.502Z,17.70
2018-05-10T17:22:11.977Z,18.33
2018-05-10T17:24:40.246Z,20.33
2018-05-10T17:27:07.668Z,19.90
2018-05-10T17:29:35.143Z,22.17
2018-05-10T17:32:02.854Z,21.27
2018-05-10T17:34:30.324Z,21.13
2018-05-10T17:36:57.776Z,20.30
2018-05-10T17:39:25.266Z,21.07
2018-05-10T17:41:53.475Z,19.73
2018-05-10T17:44:21.731Z,22.43
2018-05-10T17:46:49.981Z,21.87
2018-05-10T17:49:17.436Z,23.00
2018-05-10T17:51:45.676Z,22.33
2018-05-10T17:54:13.139Z,23.77
2018-05-10T17:56:40.608Z,23.37
2018-05-10T17:59:08.064Z,24.53
2018-05-10T18:01:35.887Z,23.90
2018-05-10T18:04:03.345Z,21.57
2018-05-10T18:06:31.117Z,20.80
2018-05-10T18:08:58.578Z,19.37
2018-05-10T18:11:26.816Z,18.73
2018-05-10T18:13:54.362Z,18.93
2018-05-10T18:16:21.785Z,17.97
2018-05-10T18:18:49.998Z,19.00
2018-05-10T18:21:17.471Z,17.60
2018-05-10T18:23:44.926Z,15.70
2018-05-10T18:26:12.387Z,14.17
2018-05-10T18:28:39.843Z,14.67
2018-05-10T18:31:07.314Z,14.13
2018-05-10T18:33:34.774Z,15.23
2018-05-10T18:36:02.236Z,13.30
2018-05-10T18:38:29.708Z,11.67
2018-05-10T18:40:57.535Z,11.57
2018-05-10T18:43:24.971Z,12.60
2018-05-10T18:45:52.440Z,12.93
2018-05-10T18:48:19.903Z,10.73
2018-05-10T18:50:47.364Z,10.90
2018-05-10T18:53:14.833Z,10.03
2018-05-10T18:55:42.310Z,11.00
2018-05-10T18:58:09.751Z,11.30
2018-05-10T19:00:37.212Z,11.13
2018-05-10T19:03:04.664Z,10.30
2018-05-10T19:05:32.140Z,10.53
2018-05-10T19:07:59.598Z,9.90
2018-05-10T19:10:27.055Z,9.77
2018-05-10T19:12:54.521Z,10.80
2018-05-10T19:15:22.060Z,9.87
2018-05-10T19:17:49.470Z,10.70
2018-05-10T19:20:17.695Z,9.63
2018-05-10T19:22:45.151Z,10.10
2018-05-10T19:25:12.633Z,11.73
2018-05-10T19:27:40.087Z,10.10
2018-05-10T19:30:07.562Z,10.23
2018-05-10T19:32:35.029Z,11.40
2018-05-10T19:35:03.269Z,11.53
2018-05-10T19:37:30.722Z,13.10
2018-05-10T19:39:59.587Z,13.43
2018-05-10T19:42:27.072Z,11.37
2018-05-10T19:44:54.540Z,11.30
2018-05-10T19:47:22.024Z,11.83
2018-05-10T19:49:50.240Z,11.80
2018-05-10T19:52:18.660Z,11.03
2018-05-10T19:54:46.178Z,10.20
2018-05-10T19:57:13.645Z,11.83
2018-05-10T19:59:41.105Z,11.23
2018-05-10T20:02:08.579Z,10.67
2018-05-10T20:04:36.035Z,9.93
2018-05-10T20:07:05.215Z,11.23
2018-05-10T20:09:32.654Z,10.90
2018-05-10T20:12:00.794Z,10.40
2018-05-10T20:14:28.255Z,10.30
2018-05-10T20:16:56.361Z,9.90
2018-05-10T20:19:24.561Z,10.57
2018-05-10T20:21:52.026Z,9.77
2018-05-10T20:24:19.485Z,9.47
2018-05-10T20:26:46.951Z,10.50
2018-05-10T20:29:14.416Z,9.40
2018-05-10T20:31:41.870Z,8.93
2018-05-10T20:34:09.395Z,8.83
2018-05-10T20:36:37.824Z,9.60
2018-05-10T20:39:05.324Z,9.90
2018-05-10T20:41:33.602Z,8.60
2018-05-10T20:44:01.023Z,9.47
2018-05-10T20:46:28.533Z,8.77
2018-05-10T20:48:55.985Z,9.20
2018-05-10T20:51:23.440Z,8.90
2018-05-10T20:53:50.897Z,9.40
2018-05-10T20:56:18.379Z,9.37
2018-05-10T20:58:46.625Z,9.90
2018-05-10T21:01:14.850Z,9.97
2018-05-10T21:03:42.389Z,9.13
2018-05-10T21:06:09.795Z,9.00
2018-05-10T21:08:37.266Z,10.03
2018-05-10T21:11:05.506Z,9.33
2018-05-10T21:13:32.955Z,9.03
2018-05-10T21:16:00.425Z,10.37
2018-05-10T21:18:27.880Z,8.90
2018-05-10T21:20:55.615Z,8.97
2018-05-10T21:23:23.080Z,9.23
2018-05-10T21:25:50.533Z,8.00
2018-05-10T21:28:17.988Z,9.63
2018-05-10T21:30:45.454Z,8.23
2018-05-10T21:33:12.917Z,9.43
2018-05-10T21:35:40.383Z,9.87
2018-05-10T21:38:07.840Z,10.00
2018-05-10T21:40:35.332Z,9.10
2018-05-10T21:43:02.801Z,9.60
2018-05-10T21:45:30.262Z,9.60
2018-05-10T21:47:58.495Z,9.57
2018-05-10T21:50:27.790Z,9.10
2018-05-10T21:52:55.252Z,9.40
2018-05-10T21:55:22.732Z,9.70
2018-05-10T21:57:50.189Z,9.20
2018-05-10T22:00:18.267Z,9.53
2018-05-10T22:02:45.728Z,8.57
2018-05-10T22:05:13.189Z,9.97
2018-05-10T22:07:40.680Z,10.00
2018-05-10T22:10:08.135Z,10.40
2018-05-10T22:12:35.661Z,9.80
2018-05-10T22:15:03.099Z,9.20
2018-05-10T22:17:31.366Z,11.10
2018-05-10T22:19:58.827Z,10.20
2018-05-10T22:22:26.304Z,10.80
2018-05-10T22:24:53.761Z,9.40
2018-05-10T22:27:21.240Z,10.27
2018-05-10T22:29:48.712Z,10.00
2018-05-10T22:32:17.010Z,9.23
2018-05-10T22:34:44.473Z,9.93
2018-05-10T22:37:12.243Z,9.10
2018-05-10T22:39:39.709Z,10.40
2018-05-10T22:42:07.201Z,10.43
2018-05-10T22:44:34.661Z,10.63
2018-05-10T22:47:02.119Z,10.27
2018-05-10T22:49:29.597Z,11.00
2018-05-10T22:51:57.093Z,10.07
2018-05-10T22:54:24.534Z,11.30
2018-05-10T22:56:52.002Z,9.97
2018-05-10T22:59:19.466Z,10.60
2018-05-10T23:01:46.932Z,9.93
2018-05-10T23:04:14.419Z,10.93
2018-05-10T23:06:41.909Z,9.63
2018-05-10T23:09:09.342Z,11.10
2018-05-10T23:11:36.814Z,11.40
2018-05-10T23:14:04.277Z,10.83
2018-05-10T23:16:31.742Z,10.97
2018-05-10T23:18:59.190Z,10.33
2018-05-10T23:21:26.719Z,10.77
2018-05-10T23:23:54.184Z,10.40
2018-05-10T23:26:21.649Z,9.70
2018-05-10T23:28:49.108Z,9.70
2018-05-10T23:31:16.571Z,10.30
2018-05-10T23:33:44.019Z,9.97
2018-05-10T23:36:11.487Z,10.10
2018-05-10T23:38:38.930Z,9.60
2018-05-10T23:41:06.411Z,10.87
2018-05-10T23:43:33.882Z,11.13
2018-05-10T23:46:01.350Z,10.10
2018-05-10T23:48:29.600Z,10.30
2018-05-10T23:50:57.043Z,10.43
2018-05-10T23:53:24.514Z,9.90
2018-05-10T23:55:51.970Z,9.93
2018-05-10T23:58:19.488Z,9.50
